createdAt,value
2022-12-13T00:02:55.106Z,28.16
2022-12-13T00:08:02.390Z,28.14
2022-12-13T00:13:09.578Z,28.16
2022-12-13T00:18:16.837Z,28.15
2022-12-13T00:23:24.035Z,28.24
2022-12-13T00:28:31.214Z,28.22
2022-12-13T00:33:38.447Z,28.40
2022-12-13T00:38:45.626Z,28.48
2022-12-13T00:43:52.808Z,28.50
2022-12-13T00:49:00.018Z,28.59
2022-12-13T00:54:07.156Z,28.63
2022-12-13T00:59:14.396Z,28.66
2022-12-13T01:04:21.567Z,28.75
2022-12-13T01:09:28.732Z,28.78
2022-12-13T01:14:35.958Z,28.81
2022-12-13T01:19:43.380Z,28.81
2022-12-13T01:24:50.553Z,28.82
2022-12-13T01:29:57.803Z,29.03
2022-12-13T01:35:04.988Z,28.99
2022-12-13T01:40:16.163Z,28.79
2022-12-13T01:45:19.985Z,28.44
2022-12-13T01:50:27.219Z,28.21
2022-12-13T01:55:34.361Z,28.05
2022-12-13T02:00:41.628Z,27.96
2022-12-13T02:05:48.855Z,27.88
2022-12-13T02:10:56.045Z,27.78
2022-12-13T02:16:03.297Z,27.69
2022-12-13T02:21:10.424Z,27.63
2022-12-13T02:26:17.562Z,27.58
2022-12-13T02:31:24.873Z,27.59
2022-12-13T02:36:36.688Z,27.57
2022-12-13T02:41:39.898Z,27.53
2022-12-13T02:46:47.081Z,27.49
2022-12-13T02:51:54.312Z,27.35
2022-12-13T02:57:01.489Z,27.21
2022-12-13T03:02:09.655Z,27.01
2022-12-13T03:07:15.913Z,26.89
2022-12-13T03:12:23.076Z,26.86
2022-12-13T03:17:30.306Z,26.81
2022-12-13T03:22:37.513Z,26.74
2022-12-13T03:27:44.717Z,26.70
2022-12-13T03:32:51.957Z,26.65
2022-12-13T03:37:59.148Z,26.67
2022-12-13T03:43:06.323Z,26.65
2022-12-13T03:48:13.509Z,26.68
2022-12-13T03:53:23.301Z,26.69
2022-12-13T03:58:36.403Z,26.72
2022-12-13T04:03:35.171Z,26.63
2022-12-13T04:08:42.448Z,26.59
2022-12-13T04:13:49.490Z,26.50
2022-12-13T04:18:56.654Z,26.44
2022-12-13T04:24:03.860Z,26.34
2022-12-13T04:29:11.050Z,26.29
2022-12-13T04:34:18.197Z,26.18
2022-12-13T04:39:25.512Z,26.18
2022-12-13T04:44:36.485Z,26.12
2022-12-13T04:49:39.867Z,26.10
2022-12-13T04:54:47.137Z,26.08
2022-12-13T04:59:54.292Z,26.09
2022-12-13T05:05:01.532Z,26.15
2022-12-13T05:10:08.763Z,25.94
2022-12-13T05:15:16.336Z,25.85
2022-12-13T05:20:23.155Z,25.67
2022-12-13T05:25:30.473Z,25.59
2022-12-13T05:30:37.621Z,25.53
2022-12-13T05:35:44.877Z,25.54
2022-12-13T05:40:52.157Z,25.51
2022-12-13T05:45:59.366Z,25.49
2022-12-13T05:51:10.717Z,25.50
2022-12-13T05:56:13.736Z,25.49
2022-12-13T06:01:20.867Z,25.52
2022-12-13T06:06:28.140Z,25.58
2022-12-13T06:11:35.363Z,25.63
2022-12-13T06:16:42.553Z,25.41
2022-12-13T06:21:49.658Z,25.28
2022-12-13T06:26:56.837Z,25.14
2022-12-13T06:32:04.017Z,25.06
2022-12-13T06:37:11.175Z,24.98
2022-12-13T06:42:21.801Z,24.97
2022-12-13T06:47:31.473Z,24.98
2022-12-13T06:52:32.894Z,25.38
2022-12-13T06:57:40.774Z,26.04
2022-12-13T07:02:47.409Z,25.80
2022-12-13T07:07:54.540Z,25.59
2022-12-13T07:13:01.932Z,25.41
2022-12-13T07:18:09.132Z,25.15
2022-12-13T07:23:16.327Z,25.08
2022-12-13T07:28:23.567Z,25.19
2022-12-13T07:33:30.719Z,25.41
2022-12-13T07:38:37.893Z,25.28
2022-12-13T07:43:45.173Z,25.38
2022-12-13T07:48:52.363Z,24.93
2022-12-13T07:53:59.476Z,25.09
2022-12-13T07:59:06.724Z,25.34
2022-12-13T08:04:13.846Z,24.95
2022-12-13T08:09:21.080Z,24.83
2022-12-13T08:14:28.268Z,24.75
2022-12-13T08:19:35.401Z,24.63
2022-12-13T08:24:42.596Z,24.56
2022-12-13T08:29:49.922Z,24.51
2022-12-13T08:34:56.974Z,24.41
2022-12-13T08:40:04.189Z,24.46
2022-12-13T08:45:11.388Z,24.38
2022-12-13T08:50:18.598Z,24.45
2022-12-13T08:55:32.325Z,24.67
2022-12-13T09:00:35.937Z,24.61
2022-12-13T09:05:40.289Z,25.19
2022-12-13T09:10:47.458Z,24.93
2022-12-13T09:15:54.777Z,24.62
2022-12-13T09:21:11.378Z,24.51
2022-12-13T09:26:09.104Z,25.26
2022-12-13T09:31:16.453Z,25.20
2022-12-13T09:36:23.608Z,25.25
2022-12-13T09:41:30.723Z,25.30
2022-12-13T09:46:44.088Z,25.31
2022-12-13T09:51:50.789Z,25.57
2022-12-13T09:56:52.342Z,25.62
2022-12-13T10:01:59.598Z,25.66
2022-12-13T10:07:06.790Z,25.81
2022-12-13T10:12:13.966Z,25.85
2022-12-13T10:17:21.171Z,26.00
2022-12-13T10:22:28.395Z,26.14
2022-12-13T10:27:35.523Z,26.16
2022-12-13T10:32:42.691Z,26.31
2022-12-13T10:37:49.939Z,26.39
2022-12-13T10:42:57.075Z,26.51
2022-12-13T10:48:04.580Z,26.22
2022-12-13T10:53:11.527Z,26.57
2022-12-13T10:58:18.709Z,26.67
2022-12-13T11:03:26.323Z,26.83
2022-12-13T11:08:33.134Z,26.99
2022-12-13T11:13:40.318Z,27.15
2022-12-13T11:18:47.527Z,26.99
2022-12-13T11:23:54.708Z,27.05
2022-12-13T11:29:01.921Z,26.99
2022-12-13T11:34:09.151Z,27.02
2022-12-13T11:39:16.396Z,26.96
2022-12-13T11:44:23.535Z,27.02
2022-12-13T11:49:30.802Z,27.13
2022-12-13T11:54:38.056Z,27.13
2022-12-13T11:59:45.264Z,27.21
2022-12-13T12:04:58.121Z,27.34
2022-12-13T12:09:59.688Z,27.37
2022-12-13T12:15:15.618Z,27.44
2022-12-13T12:20:14.121Z,27.52
2022-12-13T12:25:21.284Z,27.60
2022-12-13T12:30:28.478Z,27.71
2022-12-13T12:35:38.160Z,27.62
2022-12-13T12:41:14.705Z,27.50
2022-12-13T12:46:01.044Z,27.51
2022-12-13T12:50:57.466Z,27.57
2022-12-13T12:56:04.737Z,27.57
2022-12-13T13:01:12.008Z,27.47
2022-12-13T13:06:19.157Z,27.58
2022-12-13T13:11:26.384Z,27.60
2022-12-13T13:16:33.566Z,27.62
2022-12-13T13:21:40.742Z,27.72
2022-12-13T13:26:48.023Z,27.73
2022-12-13T13:32:00.876Z,27.77
2022-12-13T13:37:02.419Z,27.83
2022-12-13T13:42:09.594Z,27.90
2022-12-13T13:47:16.735Z,28.03
2022-12-13T13:52:25.428Z,28.19
2022-12-13T13:58:07.120Z,27.93
2022-12-13T14:02:38.479Z,27.77
2022-12-13T14:07:45.615Z,27.79
2022-12-13T14:12:52.813Z,27.86
2022-12-13T14:17:59.955Z,27.91
2022-12-13T14:23:07.096Z,27.92
2022-12-13T14:28:14.322Z,27.97
2022-12-13T14:33:21.429Z,27.99
2022-12-13T14:38:28.610Z,28.03
2022-12-13T14:43:35.866Z,27.99
2022-12-13T14:48:42.989Z,28.08
2022-12-13T14:53:50.218Z,28.14
2022-12-13T14:58:57.456Z,28.20
2022-12-13T15:04:04.701Z,28.28
2022-12-13T15:09:11.871Z,28.33
2022-12-13T15:14:19.025Z,28.56
2022-12-13T15:19:32.047Z,28.43
2022-12-13T15:24:33.373Z,28.21
2022-12-13T15:29:40.575Z,28.13
2022-12-13T15:34:47.718Z,28.14
2022-12-13T15:39:54.911Z,28.24
2022-12-13T15:45:02.174Z,28.23
2022-12-13T15:50:09.378Z,28.34
2022-12-13T15:55:19.349Z,28.48
2022-12-13T16:00:30.722Z,28.39
2022-12-13T16:05:30.966Z,28.42
2022-12-13T16:10:38.190Z,28.50
2022-12-13T16:15:45.452Z,28.54
2022-12-13T16:20:52.629Z,28.63
2022-12-13T16:26:04.312Z,28.67
2022-12-13T16:31:07.065Z,28.78
2022-12-13T16:36:14.213Z,28.97
2022-12-13T16:41:21.416Z,28.72
2022-12-13T16:47:17.954Z,28.56
2022-12-13T16:51:35.819Z,28.48
2022-12-13T16:56:43.027Z,28.64
2022-12-13T17:01:50.288Z,28.69
2022-12-13T17:06:57.664Z,28.59
2022-12-13T17:12:05.255Z,28.70
2022-12-13T17:17:17.328Z,28.78
2022-12-13T17:22:19.809Z,28.80
2022-12-13T17:27:26.990Z,28.84
2022-12-13T17:32:34.516Z,29.43
2022-12-13T17:37:41.898Z,31.94
2022-12-13T17:42:49.106Z,31.26
2022-12-13T17:47:56.630Z,30.69
2022-12-13T17:53:03.980Z,30.32
2022-12-13T17:58:11.164Z,29.92
2022-12-13T18:03:19.684Z,29.59
2022-12-13T18:08:27.376Z,29.34
2022-12-13T18:13:34.992Z,29.02
2022-12-13T18:18:42.626Z,28.85
2022-12-13T18:23:55.216Z,28.69
2022-12-13T18:28:57.931Z,28.48
2022-12-13T18:34:05.594Z,28.33
2022-12-13T18:39:12.874Z,28.22
2022-12-13T18:44:20.362Z,28.15
2022-12-13T18:49:27.773Z,27.90
2022-12-13T18:54:35.791Z,27.79
2022-12-13T18:59:43.310Z,27.76
2022-12-13T19:04:55.505Z,27.60
2022-12-13T19:09:58.617Z,27.52
2022-12-13T19:15:06.660Z,27.47
2022-12-13T19:20:14.155Z,27.34
2022-12-13T19:25:21.703Z,27.32
2022-12-13T19:30:29.205Z,27.27
2022-12-13T19:35:36.856Z,27.18
2022-12-13T19:40:44.541Z,27.08
2022-12-13T19:45:52.754Z,27.02
2022-12-13T19:51:00.204Z,26.99
2022-12-13T19:56:07.901Z,26.93
2022-12-13T20:01:15.609Z,26.86
2022-12-13T20:06:23.243Z,26.86
2022-12-13T20:11:30.835Z,26.82
2022-12-13T20:16:38.475Z,27.20
2022-12-13T20:21:46.089Z,28.26
2022-12-13T20:26:53.781Z,28.24
2022-12-13T20:32:02.429Z,28.26
2022-12-13T20:37:11.082Z,28.02
2022-12-13T20:42:18.418Z,28.08
2022-12-13T20:47:27.005Z,27.92
2022-12-13T20:52:35.150Z,28.05
2022-12-13T20:57:42.553Z,27.98
2022-12-13T21:02:50.051Z,28.15
2022-12-13T21:07:57.586Z,28.03
2022-12-13T21:13:05.083Z,27.27
2022-12-13T21:18:12.383Z,27.82
2022-12-13T21:23:19.617Z,27.02
2022-12-13T21:28:26.843Z,27.82
2022-12-13T21:33:34.506Z,28.34
2022-12-13T21:38:41.955Z,28.70
2022-12-13T21:43:49.299Z,28.92
2022-12-13T21:48:56.448Z,29.08
2022-12-13T21:54:03.642Z,28.71
2022-12-13T21:59:10.840Z,28.65
2022-12-13T22:04:17.999Z,28.65
2022-12-13T22:09:25.288Z,28.69
2022-12-13T22:14:32.463Z,29.06
2022-12-13T22:19:39.679Z,28.63
2022-12-13T22:24:52.976Z,29.05
2022-12-13T22:29:54.088Z,28.91
2022-12-13T22:35:01.435Z,28.97
2022-12-13T22:40:08.711Z,29.31
2022-12-13T22:45:15.935Z,29.08
2022-12-13T22:50:23.101Z,28.86
2022-12-13T22:55:30.341Z,28.82
2022-12-13T23:00:37.681Z,28.70
2022-12-13T23:05:44.764Z,28.97
2022-12-13T23:10:52.039Z,28.23
2022-12-13T23:15:59.227Z,28.15
2022-12-13T23:21:06.386Z,28.44
2022-12-13T23:26:13.639Z,28.52
2022-12-13T23:31:20.830Z,28.62
2022-12-13T23:36:28.042Z,28.45
2022-12-13T23:41:35.300Z,28.82
2022-12-13T23:46:48.182Z,28.92
2022-12-13T23:51:49.648Z,29.15
2022-12-13T23:56:56.891Z,28.73
